createdAt,value
2023-02-16T00:00:00.621Z,15.27
2023-02-16T00:05:02.195Z,14.40
2023-02-16T00:10:03.933Z,15.23
2023-02-16T00:15:18.547Z,16.27
2023-02-16T00:20:20.214Z,15.30
2023-02-16T00:25:21.776Z,14.83
2023-02-16T00:30:23.552Z,14.97
2023-02-16T00:35:25.259Z,14.90
2023-02-16T00:40:26.810Z,15.60
2023-02-16T00:45:28.753Z,14.80
2023-02-16T00:50:32.921Z,15.23
2023-02-16T00:55:35.497Z,13.93
2023-02-16T01:00:43.311Z,15.20
2023-02-16T01:05:45.054Z,14.70
2023-02-16T01:11:07.235Z,13.80
2023-02-16T01:16:13.333Z,14.83
2023-02-16T01:21:15.064Z,14.53
2023-02-16T01:26:18.945Z,14.33
2023-02-16T01:31:21.320Z,15.00
2023-02-16T01:36:26.836Z,14.50
2023-02-16T01:41:44.189Z,14.80
2023-02-16T01:47:05.823Z,14.07
2023-02-16T01:52:20.514Z,14.93
2023-02-16T01:57:27.699Z,14.47
2023-02-16T02:02:38.443Z,14.83
2023-02-16T02:07:57.879Z,15.10
2023-02-16T02:13:06.805Z,14.13
2023-02-16T02:18:09.301Z,13.00
2023-02-16T02:23:32.215Z,14.57
2023-02-16T02:28:45.425Z,14.23
2023-02-16T02:33:59.159Z,13.87
2023-02-16T02:39:13.077Z,14.37
2023-02-16T02:44:18.824Z,12.57
2023-02-16T02:49:20.461Z,13.57
2023-02-16T02:54:43.866Z,13.63
2023-02-16T03:00:16.590Z,12.80
2023-02-16T03:05:19.278Z,12.80
2023-02-16T03:10:46.785Z,12.83
2023-02-16T03:15:49.695Z,12.43
2023-02-16T03:21:10.310Z,11.80
2023-02-16T03:26:30.697Z,12.23
2023-02-16T03:31:38.552Z,12.37
2023-02-16T03:36:43.632Z,12.40
2023-02-16T03:41:51.136Z,12.33
2023-02-16T03:46:52.749Z,12.20
2023-02-16T03:51:54.309Z,12.50
2023-02-16T03:56:55.888Z,11.97
2023-02-16T04:01:57.491Z,12.80
2023-02-16T04:06:59.088Z,13.07
2023-02-16T04:12:19.056Z,12.17
2023-02-16T04:17:20.645Z,13.30
2023-02-16T04:22:22.324Z,13.00
2023-02-16T04:27:23.928Z,11.70
2023-02-16T04:32:25.504Z,12.30
2023-02-16T04:37:27.225Z,12.77
2023-02-16T04:42:28.931Z,13.53
2023-02-16T04:47:30.493Z,13.60
2023-02-16T04:52:32.381Z,13.23
2023-02-16T04:57:34.019Z,13.43
2023-02-16T05:02:35.629Z,13.90
2023-02-16T05:07:37.258Z,13.20
2023-02-16T05:12:57.233Z,12.97
2023-02-16T05:17:58.829Z,13.30
2023-02-16T05:23:00.439Z,12.80
2023-02-16T05:28:02.060Z,13.60
2023-02-16T05:33:03.750Z,13.50
2023-02-16T05:38:05.363Z,13.30
2023-02-16T05:43:07.093Z,14.00
2023-02-16T05:48:08.637Z,13.97
2023-02-16T05:53:10.192Z,14.30
2023-02-16T05:58:11.804Z,13.67
2023-02-16T06:03:13.388Z,12.53
2023-02-16T06:08:14.973Z,14.53
2023-02-16T06:13:17.086Z,13.47
2023-02-16T06:18:18.651Z,13.73
2023-02-16T06:23:20.346Z,13.03
2023-02-16T06:28:21.937Z,13.37
2023-02-16T06:33:23.511Z,13.27
2023-02-16T06:38:25.105Z,13.70
2023-02-16T06:43:27.687Z,14.07
2023-02-16T06:48:30.553Z,14.30
2023-02-16T06:53:32.124Z,14.27
2023-02-16T06:58:33.691Z,15.00
2023-02-16T07:03:35.434Z,14.30
2023-02-16T07:08:37.109Z,14.13
2023-02-16T07:13:38.761Z,13.40
2023-02-16T07:18:40.512Z,14.60
2023-02-16T07:23:42.808Z,14.67
2023-02-16T07:28:44.457Z,14.63
2023-02-16T07:33:46.184Z,14.40
2023-02-16T07:38:47.757Z,15.27
2023-02-16T07:43:49.371Z,13.97
2023-02-16T07:48:50.988Z,13.87
2023-02-16T07:53:52.618Z,14.37
2023-02-16T07:58:55.298Z,13.73
2023-02-16T08:03:57.168Z,14.50
2023-02-16T08:08:58.709Z,14.33
2023-02-16T08:14:00.564Z,13.57
2023-02-16T08:19:03.843Z,14.07
2023-02-16T08:24:07.611Z,15.33
2023-02-16T08:29:13.216Z,13.80
2023-02-16T08:34:16.800Z,15.07
2023-02-16T08:39:20.801Z,14.43
2023-02-16T08:44:24.305Z,14.97
2023-02-16T08:49:25.974Z,16.10
2023-02-16T08:54:30.703Z,14.80
2023-02-16T08:59:33.258Z,13.80
2023-02-16T09:04:36.700Z,13.97
2023-02-16T09:09:39.393Z,13.63
2023-02-16T09:14:42.056Z,13.83
2023-02-16T09:19:44.602Z,13.60
2023-02-16T09:24:46.567Z,14.40
2023-02-16T09:29:49.634Z,14.30
2023-02-16T09:34:51.289Z,13.37
2023-02-16T09:39:52.978Z,14.20
2023-02-16T09:45:09.840Z,13.43
2023-02-16T09:50:52.634Z,14.43
2023-02-16T09:56:17.630Z,14.30
2023-02-16T10:01:19.201Z,14.93
2023-02-16T10:06:31.003Z,15.20
2023-02-16T10:11:48.783Z,15.33
2023-02-16T10:17:15.239Z,15.83
2023-02-16T10:22:25.160Z,14.67
2023-02-16T10:27:33.203Z,16.47
2023-02-16T10:32:44.014Z,15.77
2023-02-16T10:38:19.976Z,15.03
2023-02-16T10:43:32.744Z,16.17
2023-02-16T10:48:34.568Z,16.50
2023-02-16T10:53:53.333Z,16.23
2023-02-16T10:58:56.611Z,16.33
2023-02-16T11:03:58.769Z,15.50
2023-02-16T11:09:02.995Z,15.40
2023-02-16T11:14:25.278Z,15.33
2023-02-16T11:19:28.834Z,16.13
2023-02-16T11:24:37.209Z,15.60
2023-02-16T11:29:38.800Z,16.43
2023-02-16T11:34:45.695Z,16.10
2023-02-16T11:39:50.957Z,15.18
2023-02-16T11:44:54.838Z,14.85
2023-02-16T11:50:05.287Z,15.87
2023-02-16T11:55:24.340Z,16.60
2023-02-16T12:00:26.586Z,15.80
2023-02-16T12:05:43.670Z,16.05
2023-02-16T12:10:54.447Z,15.75
2023-02-16T12:16:15.349Z,15.70
2023-02-16T12:21:45.426Z,15.82
2023-02-16T12:26:53.746Z,15.13
2023-02-16T12:32:01.323Z,15.73
2023-02-16T12:37:31.779Z,15.02
2023-02-16T12:42:48.327Z,16.55
2023-02-16T12:47:54.788Z,15.90
2023-02-16T12:53:12.314Z,16.38
2023-02-16T12:58:14.848Z,16.50
2023-02-16T13:03:29.060Z,15.35
2023-02-16T13:08:41.532Z,16.70
2023-02-16T13:13:45.225Z,15.88
2023-02-16T13:18:48.996Z,16.92
2023-02-16T13:24:14.738Z,16.88
2023-02-16T13:29:34.391Z,15.70
2023-02-16T13:34:54.554Z,17.27
2023-02-16T13:40:02.555Z,18.27
2023-02-16T13:45:15.971Z,17.70
2023-02-16T13:50:20.570Z,17.77
2023-02-16T13:55:32.746Z,17.88
2023-02-16T14:00:45.342Z,18.30
2023-02-16T14:05:47.996Z,18.58
2023-02-16T14:10:53.143Z,19.08
2023-02-16T14:15:56.782Z,19.02
2023-02-16T14:21:06.593Z,19.83
2023-02-16T14:26:10.196Z,18.58
2023-02-16T14:31:18.712Z,18.42
2023-02-16T14:36:24.184Z,18.90
2023-02-16T14:41:33.067Z,17.77
2023-02-16T14:46:56.043Z,18.48
2023-02-16T14:52:00.274Z,19.10
2023-02-16T14:57:18.847Z,19.17
2023-02-16T15:02:28.184Z,19.38
2023-02-16T15:07:30.504Z,18.23
2023-02-16T15:12:33.364Z,20.05
2023-02-16T15:17:47.932Z,19.42
2023-02-16T15:22:57.930Z,19.63
2023-02-16T15:28:25.922Z,18.45
2023-02-16T15:33:36.239Z,19.23
2023-02-16T15:38:40.364Z,19.83
2023-02-16T15:43:50.060Z,19.35
2023-02-16T15:48:51.693Z,19.50
2023-02-16T15:53:58.875Z,19.48
2023-02-16T15:59:02.726Z,19.33
2023-02-16T16:04:22.247Z,19.80
2023-02-16T16:09:33.859Z,20.30
2023-02-16T16:14:43.252Z,20.55
2023-02-16T16:19:44.898Z,20.38
2023-02-16T16:24:48.527Z,22.33
2023-02-16T16:29:50.116Z,20.73
2023-02-16T16:34:51.723Z,22.08
2023-02-16T16:40:00.966Z,20.70
2023-02-16T16:45:25.789Z,20.73
2023-02-16T16:50:28.789Z,21.98
2023-02-16T16:55:33.860Z,21.23
2023-02-16T17:00:38.312Z,21.30
2023-02-16T17:05:40.030Z,21.02
2023-02-16T17:10:41.971Z,21.85
2023-02-16T17:16:02.719Z,22.83
2023-02-16T17:21:05.262Z,21.90
2023-02-16T17:26:07.203Z,22.13
2023-02-16T17:31:10.230Z,22.67
2023-02-16T17:36:15.204Z,22.60
2023-02-16T17:41:21.412Z,23.00
2023-02-16T17:46:23.922Z,23.83
2023-02-16T17:51:26.273Z,22.52
2023-02-16T17:56:28.045Z,23.15
2023-02-16T18:01:29.667Z,23.65
2023-02-16T18:06:31.303Z,22.67
2023-02-16T18:11:32.928Z,22.27
2023-02-16T18:16:34.516Z,23.23
2023-02-16T18:21:36.086Z,22.92
2023-02-16T18:26:37.750Z,21.58
2023-02-16T18:31:40.549Z,22.55
2023-02-16T18:36:42.263Z,22.70
2023-02-16T18:41:43.842Z,22.60
2023-02-16T18:46:45.411Z,22.83
2023-02-16T18:51:47.035Z,23.87
2023-02-16T18:56:48.598Z,23.20
2023-02-16T19:01:57.503Z,22.00
2023-02-16T19:06:59.082Z,23.38
2023-02-16T19:12:00.702Z,22.40
2023-02-16T19:17:02.551Z,22.57
2023-02-16T19:22:04.379Z,22.73
2023-02-16T19:27:05.981Z,22.63
2023-02-16T19:32:07.714Z,22.63
2023-02-16T19:37:09.284Z,22.50
2023-02-16T19:42:10.929Z,22.40
2023-02-16T19:47:12.535Z,22.73
2023-02-16T19:52:14.106Z,23.27
2023-02-16T19:57:15.712Z,23.17
2023-02-16T20:02:17.572Z,23.35
2023-02-16T20:07:19.227Z,23.02
2023-02-16T20:12:21.048Z,23.48
2023-02-16T20:17:22.633Z,22.85
2023-02-16T20:22:24.169Z,23.35
2023-02-16T20:27:27.849Z,22.73
2023-02-16T20:32:29.856Z,22.38
2023-02-16T20:37:31.487Z,23.77
2023-02-16T20:42:33.379Z,22.87
2023-02-16T20:47:34.953Z,23.43
2023-02-16T20:52:36.697Z,21.90
2023-02-16T20:57:39.116Z,22.67
2023-02-16T21:02:40.908Z,22.10
2023-02-16T21:07:42.805Z,22.42
2023-02-16T21:12:44.835Z,21.77
2023-02-16T21:17:46.452Z,21.50
2023-02-16T21:22:48.063Z,20.85
2023-02-16T21:27:49.775Z,20.10
2023-02-16T21:32:51.620Z,20.60
2023-02-16T21:37:53.236Z,19.65
2023-02-16T21:42:54.804Z,19.00
2023-02-16T21:48:14.786Z,19.48
2023-02-16T21:53:16.400Z,20.30
2023-02-16T21:58:18.098Z,19.42
2023-02-16T22:03:20.551Z,20.05
2023-02-16T22:08:26.382Z,20.23
2023-02-16T22:13:27.962Z,19.70
2023-02-16T22:18:29.566Z,19.45
2023-02-16T22:23:31.476Z,18.27
2023-02-16T22:28:33.366Z,17.77
2023-02-16T22:33:35.604Z,18.67
2023-02-16T22:38:37.227Z,18.33
2023-02-16T22:43:39.308Z,18.48
2023-02-16T22:48:41.768Z,18.30
2023-02-16T22:53:43.605Z,16.85
2023-02-16T22:58:45.913Z,17.17
2023-02-16T23:03:49.344Z,17.40
2023-02-16T23:08:53.322Z,17.63
2023-02-16T23:13:55.249Z,17.02
2023-02-16T23:18:57.842Z,16.52
2023-02-16T23:24:00.199Z,16.92
2023-02-16T23:29:02.286Z,17.40
2023-02-16T23:34:04.966Z,16.80
2023-02-16T23:39:12.275Z,16.42
2023-02-16T23:44:14.588Z,16.48
2023-02-16T23:49:16.133Z,16.52
2023-02-16T23:54:17.692Z,17.42
2023-02-16T23:59:19.286Z,17.10
